Time;durP1;ratioP1;P1;durP2;ratioP2;P2;SDS_P1;SDS_P2;PMS_P1;PMS_P2;Temp;Humidity;BMP_temperature;BMP_pressure;BME280_temperature;BME280_humidity;BME280_pressure;Samples;Min_cycle;Max_cycle;Signal;HPM_P1;HPM_P2
2023/05/31 00:01:33;;;;;;;5.80;2.10;;;11.10;99.90;;;;;;5034217;28;20098;-80
2023/05/31 00:04:00;;;;;;;3.50;2.22;;;11.10;99.90;;;;;;5060237;28;20147;-80
2023/05/31 00:06:29;;;;;;;3.25;1.85;;;11.20;99.90;;;;;;5049366;28;20046;-80
2023/05/31 00:08:56;;;;;;;7.47;2.55;;;11.20;99.90;;;;;;5055610;28;20532;-80
2023/05/31 00:11:26;;;;;;;6.75;3.00;;;11.20;99.90;;;;;;5053005;28;20051;-80
2023/05/31 00:13:53;;;;;;;16.35;3.80;;;11.20;99.90;;;;;;5051876;28;20049;-80
2023/05/31 00:16:21;;;;;;;10.40;3.05;;;11.10;99.90;;;;;;5071189;28;20547;-79
2023/05/31 00:18:48;;;;;;;11.02;3.13;;;11.10;99.90;;;;;;5069044;28;20059;-80
2023/05/31 00:21:16;;;;;;;21.50;3.70;;;11.10;99.90;;;;;;5065945;28;20076;-80
2023/05/31 00:23:44;;;;;;;12.98;3.33;;;11.10;99.90;;;;;;5065763;28;20421;-80
2023/05/31 00:26:12;;;;;;;20.17;3.22;;;11.00;99.90;;;;;;5058840;28;20049;-80
2023/05/31 00:28:40;;;;;;;10.90;3.00;;;11.00;99.90;;;;;;5048821;28;20044;-81
2023/05/31 00:31:08;;;;;;;13.05;3.47;;;11.00;99.90;;;;;;5056416;28;20166;-81
2023/05/31 00:33:35;;;;;;;13.68;2.85;;;10.90;99.90;;;;;;5065360;28;20106;-80
2023/05/31 00:36:03;;;;;;;18.23;3.03;;;11.00;99.90;;;;;;5060024;28;20098;-80
2023/05/31 00:38:31;;;;;;;12.95;3.10;;;10.90;99.90;;;;;;5071814;28;20445;-80
2023/05/31 00:40:59;;;;;;;14.27;2.95;;;11.00;99.90;;;;;;5058658;28;20041;-80
2023/05/31 00:43:27;;;;;;;9.93;3.38;;;11.00;99.90;;;;;;5065465;28;20045;-80
2023/05/31 00:45:55;;;;;;;13.60;3.60;;;11.00;99.90;;;;;;5046710;28;20051;-80
2023/05/31 00:48:22;;;;;;;17.77;3.00;;;10.90;99.90;;;;;;5066785;28;20060;-79
2023/05/31 00:50:50;;;;;;;17.58;3.95;;;10.90;99.90;;;;;;5053517;28;20106;-80
2023/05/31 00:53:19;;;;;;;15.02;3.38;;;10.80;99.90;;;;;;5057846;28;20055;-80
2023/05/31 00:55:51;;;;;;;20.98;4.03;;;10.80;99.90;;;;;;5070505;28;20044;-79
2023/05/31 00:58:20;;;;;;;14.98;4.20;;;10.80;99.90;;;;;;5064498;28;20421;-79
2023/05/31 01:00:47;;;;;;;10.43;3.60;;;10.80;99.90;;;;;;5045491;28;20080;-79
2023/05/31 01:03:16;;;;;;;13.68;4.40;;;10.70;99.90;;;;;;5070060;28;20608;-79
2023/05/31 01:05:44;;;;;;;14.88;5.03;;;10.70;99.90;;;;;;5054025;28;20053;-79
2023/05/31 01:08:11;;;;;;;17.48;5.07;;;10.70;99.90;;;;;;5050638;28;20052;-79
2023/05/31 01:10:38;;;;;;;19.10;4.88;;;10.60;99.90;;;;;;5053366;28;20056;-79
2023/05/31 01:13:15;;;;;;;21.42;4.60;;;10.50;99.90;;;;;;5063178;28;20130;-79
2023/05/31 01:15:53;;;;;;;13.38;4.03;;;10.50;99.90;;;;;;5050501;28;20095;-79
2023/05/31 01:18:32;;;;;;;10.75;3.70;;;10.40;99.90;;;;;;5067776;28;20052;-79
2023/05/31 01:21:03;;;;;;;16.67;4.22;;;10.40;99.90;;;;;;5068090;28;20063;-80
2023/05/31 01:23:48;;;;;;;18.15;4.70;;;10.40;99.90;;;;;;5054741;28;20469;-81
2023/05/31 01:26:41;;;;;;;15.57;4.53;;;10.30;99.90;;;;;;5054758;28;20059;-80
2023/05/31 01:29:16;;;;;;;16.23;5.22;;;10.40;99.90;;;;;;5052174;28;20052;-81
2023/05/31 01:31:46;;;;;;;10.43;3.38;;;10.40;99.90;;;;;;5063238;28;20044;-80
2023/05/31 01:34:14;;;;;;;17.25;3.85;;;10.30;99.90;;;;;;5063565;28;20064;-81
2023/05/31 01:36:43;;;;;;;13.52;3.65;;;10.30;99.90;;;;;;5034909;28;20072;-81
2023/05/31 01:39:12;;;;;;;13.60;4.70;;;10.30;99.90;;;;;;5046570;28;20090;-81
2023/05/31 01:41:43;;;;;;;31.02;5.60;;;10.20;99.90;;;;;;5067673;28;20536;-81
2023/05/31 01:44:14;;;;;;;16.73;4.38;;;10.30;99.90;;;;;;5069131;28;20135;-81
2023/05/31 01:46:42;;;;;;;23.17;4.95;;;10.20;99.90;;;;;;5071160;28;20135;-80
2023/05/31 01:49:11;;;;;;;28.83;4.80;;;10.30;99.90;;;;;;5066665;28;20060;-81
2023/05/31 01:51:41;;;;;;;20.90;4.88;;;10.30;99.90;;;;;;5053930;28;20053;-82
2023/05/31 01:54:09;;;;;;;18.40;4.70;;;10.30;99.90;;;;;;5048846;28;20078;-81
2023/05/31 01:56:40;;;;;;;17.52;3.83;;;10.20;99.90;;;;;;5070643;28;20537;-81
2023/05/31 01:59:09;;;;;;;18.27;4.32;;;10.20;99.90;;;;;;5065228;28;20048;-81
2023/05/31 02:01:38;;;;;;;13.50;4.05;;;10.20;99.90;;;;;;5086633;28;20041;-81
2023/05/31 02:04:05;;;;;;;13.85;3.90;;;10.20;99.90;;;;;;5065707;28;20460;-81
2023/05/31 02:06:37;;;;;;;8.90;3.90;;;10.10;99.90;;;;;;5040263;28;20094;-81
2023/05/31 02:09:05;;;;;;;23.35;5.07;;;10.10;99.90;;;;;;5058316;28;20147;-81
2023/05/31 02:11:33;;;;;;;12.60;4.05;;;10.10;99.90;;;;;;5034422;28;20521;-81
2023/05/31 02:14:02;;;;;;;10.35;3.88;;;10.10;99.90;;;;;;5048426;28;20098;-81
2023/05/31 02:16:29;;;;;;;9.98;3.95;;;10.10;99.90;;;;;;5054085;28;20045;-82
2023/05/31 02:18:58;;;;;;;11.98;4.07;;;10.10;99.90;;;;;;5060174;28;20491;-80
2023/05/31 02:21:31;;;;;;;11.30;4.90;;;10.10;99.90;;;;;;5034449;28;20049;-80
2023/05/31 02:23:58;;;;;;;8.13;4.63;;;10.10;99.90;;;;;;5062967;28;20134;-80
2023/05/31 02:26:26;;;;;;;21.23;6.10;;;10.10;99.90;;;;;;5046753;28;20037;-80
2023/05/31 02:28:54;;;;;;;12.43;5.70;;;10.10;99.90;;;;;;5070099;28;20044;-81
2023/05/31 02:31:23;;;;;;;10.68;4.40;;;10.10;99.90;;;;;;5069263;28;20044;-81
2023/05/31 02:33:50;;;;;;;14.38;5.10;;;10.10;99.90;;;;;;5049375;28;20052;-81
2023/05/31 02:36:18;;;;;;;14.10;5.30;;;10.10;99.90;;;;;;5056389;28;20052;-81
2023/05/31 02:38:46;;;;;;;11.88;4.85;;;10.10;99.90;;;;;;5057996;28;20083;-82
2023/05/31 02:41:15;;;;;;;18.27;5.00;;;10.20;99.90;;;;;;5048534;28;20049;-82
2023/05/31 02:43:42;;;;;;;19.17;5.53;;;10.20;99.90;;;;;;5062755;28;20072;-82
2023/05/31 02:46:10;;;;;;;15.05;4.72;;;10.30;99.90;;;;;;5063862;28;20094;-82
2023/05/31 02:48:39;;;;;;;11.43;4.45;;;10.30;99.90;;;;;;5065738;28;20047;-83
2023/05/31 02:51:07;;;;;;;11.82;4.88;;;10.40;99.90;;;;;;5050373;28;20092;-83
2023/05/31 02:53:53;;;;;;;12.43;4.22;;;10.40;99.90;;;;;;5057680;28;20048;-81
2023/05/31 02:56:26;;;;;;;17.08;4.20;;;10.60;99.90;;;;;;5067437;28;20689;-82
2023/05/31 02:59:10;;;;;;;9.93;4.20;;;10.80;99.90;;;;;;5055582;28;20048;-82
2023/05/31 03:01:43;;;;;;;10.93;4.10;;;11.00;99.90;;;;;;5061824;28;20135;-81
2023/05/31 03:04:30;;;;;;;13.20;4.53;;;11.20;99.90;;;;;;5051734;28;20102;-82
2023/05/31 03:07:00;;;;;;;11.60;4.75;;;11.40;99.90;;;;;;5069859;28;20048;-81
2023/05/31 03:09:30;;;;;;;12.18;4.30;;;11.40;99.90;;;;;;5046173;28;20110;-81
2023/05/31 03:11:57;;;;;;;6.72;3.72;;;11.50;99.90;;;;;;5061783;28;20063;-81
2023/05/31 03:14:25;;;;;;;13.23;4.70;;;11.50;99.90;;;;;;5067143;28;20055;-82
2023/05/31 03:16:56;;;;;;;14.27;4.70;;;11.60;99.90;;;;;;5064427;28;20049;-78
2023/05/31 03:19:24;;;;;;;13.55;3.90;;;11.60;99.90;;;;;;5044863;28;20144;-78
2023/05/31 03:21:55;;;;;;;13.80;3.53;;;11.70;99.90;;;;;;5069069;28;20121;-78
2023/05/31 03:24:25;;;;;;;6.38;3.25;;;11.70;99.90;;;;;;5050956;28;20044;-79
2023/05/31 03:26:54;;;;;;;6.13;3.10;;;11.70;99.90;;;;;;5062971;28;20515;-78
2023/05/31 03:29:22;;;;;;;9.30;3.28;;;11.70;99.90;;;;;;5058223;28;20521;-79
2023/05/31 03:31:50;;;;;;;8.23;3.47;;;11.60;99.90;;;;;;5047972;28;22448;-78
2023/05/31 03:34:18;;;;;;;6.88;3.10;;;11.70;99.90;;;;;;5053028;28;20517;-78
2023/05/31 03:36:46;;;;;;;15.32;4.18;;;11.70;99.90;;;;;;5039203;28;20095;-78
2023/05/31 03:39:32;;;;;;;13.27;3.83;;;11.60;99.90;;;;;;5052223;28;20068;-78
2023/05/31 03:42:02;;;;;;;8.93;3.80;;;11.50;99.90;;;;;;5036695;28;20139;-78
2023/05/31 03:44:30;;;;;;;7.43;3.33;;;11.50;99.90;;;;;;5070728;28;20052;-78
2023/05/31 03:46:58;;;;;;;7.63;2.90;;;11.40;99.90;;;;;;5066852;28;20045;-79
2023/05/31 03:49:26;;;;;;;11.00;3.67;;;11.30;99.90;;;;;;5038907;28;20140;-78
2023/05/31 03:51:53;;;;;;;7.70;2.67;;;11.40;99.90;;;;;;5052253;28;20060;-78
2023/05/31 03:54:21;;;;;;;8.82;2.55;;;11.40;99.90;;;;;;5052899;28;20107;-80
2023/05/31 03:56:50;;;;;;;7.63;2.00;;;11.40;99.90;;;;;;5068605;28;20072;-80
2023/05/31 03:59:18;;;;;;;5.07;2.33;;;11.50;99.90;;;;;;5075199;28;20052;-80
2023/05/31 04:01:45;;;;;;;8.80;3.40;;;11.50;99.90;;;;;;5065184;28;20303;-80
2023/05/31 04:04:13;;;;;;;11.43;3.33;;;11.50;99.90;;;;;;5037257;28;20052;-80
2023/05/31 04:06:40;;;;;;;11.95;3.40;;;11.60;99.90;;;;;;5065361;28;20544;-79
2023/05/31 04:09:08;;;;;;;11.25;2.80;;;11.60;99.90;;;;;;5051886;28;20052;-80
2023/05/31 04:11:35;;;;;;;9.70;3.40;;;11.70;99.90;;;;;;5054713;28;20059;-82
2023/05/31 04:14:05;;;;;;;3.80;1.95;;;11.60;99.90;;;;;;5052644;28;20118;-84
2023/05/31 04:16:33;;;;;;;4.53;2.20;;;11.70;99.90;;;;;;5064878;28;20053;-85
2023/05/31 04:19:03;;;;;;;3.40;1.80;;;11.70;99.90;;;;;;5080831;28;20042;-85
2023/05/31 04:21:32;;;;;;;5.18;2.47;;;11.70;99.90;;;;;;5070504;28;20053;-85
2023/05/31 04:24:01;;;;;;;4.65;2.38;;;11.80;99.90;;;;;;5051786;28;20416;-86
2023/05/31 04:26:32;;;;;;;7.75;2.30;;;11.80;99.90;;;;;;5077059;28;20053;-84
2023/05/31 04:29:00;;;;;;;8.52;2.08;;;11.90;99.90;;;;;;5039137;28;20056;-82
2023/05/31 04:31:30;;;;;;;3.63;2.65;;;11.90;99.90;;;;;;5034946;28;20041;-82
2023/05/31 04:34:00;;;;;;;4.20;1.70;;;12.00;99.90;;;;;;5043595;28;20053;-83
2023/05/31 04:36:28;;;;;;;6.10;1.73;;;12.00;99.90;;;;;;5041156;28;20110;-83
2023/05/31 04:38:57;;;;;;;5.47;1.58;;;12.10;99.90;;;;;;5057158;28;20053;-82
2023/05/31 04:41:29;;;;;;;;;;;12.20;99.90;;;;;;5045873;28;20051;-83
2023/05/31 04:43:59;;;;;;;3.42;1.50;;;12.20;99.90;;;;;;5063431;28;19994;-82
2023/05/31 04:46:27;;;;;;;5.07;1.83;;;12.30;99.90;;;;;;5066332;28;20051;-83
2023/05/31 04:48:58;;;;;;;6.85;1.48;;;12.40;99.90;;;;;;5062107;28;20517;-84
2023/05/31 04:51:25;;;;;;;2.80;1.27;;;12.40;99.90;;;;;;5068236;28;20284;-83
2023/05/31 04:53:53;;;;;;;4.32;1.38;;;12.50;99.90;;;;;;5062384;28;20099;-84
2023/05/31 04:56:24;;;;;;;1.63;1.40;;;12.50;99.90;;;;;;5060142;28;20513;-84
2023/05/31 04:59:05;;;;;;;4.03;1.70;;;12.60;99.90;;;;;;5036171;28;20049;-84
2023/05/31 05:01:33;;;;;;;2.72;1.20;;;12.80;99.90;;;;;;5049734;28;20047;-85
2023/05/31 05:04:09;;;;;;;3.40;1.70;;;13.10;99.90;;;;;;5052075;28;20569;-83
2023/05/31 05:06:37;;;;;;;5.82;1.42;;;13.50;99.90;;;;;;5059036;28;20052;-85
2023/05/31 05:09:05;;;;;;;4.00;1.40;;;13.80;99.90;;;;;;5050479;28;20926;-84
2023/05/31 05:11:36;;;;;;;7.88;1.40;;;14.10;99.90;;;;;;5051960;28;20048;-83
2023/05/31 05:14:07;;;;;;;2.03;1.40;;;14.40;99.90;;;;;;5056704;28;20052;-83
2023/05/31 05:16:35;;;;;;;4.57;1.48;;;14.70;99.90;;;;;;5051245;28;20109;-83
2023/05/31 05:19:05;;;;;;;3.67;1.63;;;14.90;99.90;;;;;;5067866;28;20140;-85
2023/05/31 05:21:34;;;;;;;3.50;1.50;;;15.00;99.90;;;;;;5050472;28;20049;-82
2023/05/31 05:24:02;;;;;;;4.03;1.52;;;15.10;99.90;;;;;;5041219;28;20040;-82
2023/05/31 05:26:30;;;;;;;7.22;1.70;;;15.10;99.90;;;;;;5046870;28;20075;-83
2023/05/31 05:28:58;;;;;;;10.40;1.13;;;15.20;99.90;;;;;;5057183;28;20045;-77
2023/05/31 05:31:25;;;;;;;8.45;1.27;;;15.30;99.90;;;;;;5074826;28;20147;-82
2023/05/31 05:33:55;;;;;;;9.73;1.17;;;15.30;99.90;;;;;;5051905;28;20060;-82
2023/05/31 05:36:25;;;;;;;6.05;2.03;;;15.30;99.90;;;;;;5059234;28;20412;-81
2023/05/31 05:38:58;;;;;;;3.80;1.20;;;15.20;99.90;;;;;;5069957;28;20527;-79
2023/05/31 05:41:26;;;;;;;7.07;1.63;;;15.20;99.90;;;;;;5060081;28;20525;-80
2023/05/31 05:43:54;;;;;;;2.53;1.25;;;15.40;99.90;;;;;;5041607;28;20156;-79
2023/05/31 05:46:22;;;;;;;5.18;1.70;;;16.10;99.90;;;;;;5069338;28;20550;-81
2023/05/31 05:48:50;;;;;;;4.72;1.30;;;16.90;99.90;;;;;;5052559;28;20590;-82
2023/05/31 05:51:19;;;;;;;4.03;1.20;;;17.40;99.90;;;;;;5066305;28;20055;-83
2023/05/31 05:53:50;;;;;;;5.63;0.98;;;17.50;99.90;;;;;;5069108;28;20056;-84
2023/05/31 05:56:18;;;;;;;4.72;1.00;;;17.80;99.90;;;;;;5065716;28;20065;-82
2023/05/31 05:58:58;;;;;;;2.08;1.05;;;18.40;99.90;;;;;;5051952;28;20044;-83
2023/05/31 06:01:26;;;;;;;3.83;0.95;;;18.90;99.90;;;;;;5054265;28;20425;-84
2023/05/31 06:03:57;;;;;;;2.88;0.80;;;19.00;99.90;;;;;;5062364;28;20559;-83
2023/05/31 06:06:26;;;;;;;4.53;1.15;;;18.70;96.80;;;;;;5070835;28;20049;-78
2023/05/31 06:08:55;;;;;;;4.57;1.17;;;18.20;95.90;;;;;;5066847;28;20044;-83
2023/05/31 06:11:22;;;;;;;3.45;1.23;;;17.90;96.70;;;;;;5033607;28;20143;-84
2023/05/31 06:13:56;;;;;;;1.35;0.90;;;17.50;96.50;;;;;;5054912;28;20067;-83
2023/05/31 06:16:25;;;;;;;3.45;1.13;;;17.30;96.00;;;;;;5067043;28;20417;-83
2023/05/31 06:18:54;;;;;;;5.20;1.23;;;17.30;96.10;;;;;;5045032;28;20390;-85
2023/05/31 06:21:21;;;;;;;4.20;0.88;;;17.60;95.90;;;;;;5069401;28;20048;-84
2023/05/31 06:23:49;;;;;;;3.15;1.30;;;17.90;95.00;;;;;;5054933;28;20056;-85
2023/05/31 06:26:19;;;;;;;4.55;0.98;;;18.00;94.30;;;;;;5048743;28;20045;-84
2023/05/31 06:28:46;;;;;;;6.78;1.35;;;18.00;93.60;;;;;;5052836;28;20052;-85
2023/05/31 06:31:40;;;;;;;4.05;1.58;;;17.90;94.30;;;;;;5049942;28;20064;-85
2023/05/31 06:34:10;;;;;;;7.68;2.35;;;17.90;94.30;;;;;;5066548;28;20505;-85
2023/05/31 06:36:38;;;;;;;7.70;1.58;;;17.70;94.50;;;;;;5069355;28;20059;-83
2023/05/31 06:39:06;;;;;;;3.28;1.20;;;17.70;95.40;;;;;;5064517;28;20053;-81
2023/05/31 06:41:36;;;;;;;5.60;1.17;;;17.70;94.60;;;;;;5049149;28;20086;-83
2023/05/31 06:44:20;;;;;;;4.82;1.35;;;17.70;94.40;;;;;;5059210;28;20041;-83
2023/05/31 06:47:00;;;;;;;1.55;1.02;;;17.80;93.80;;;;;;5050046;28;20130;-85
2023/05/31 06:49:48;;;;;;;10.88;1.02;;;17.80;93.30;;;;;;5069883;28;20052;-81
2023/05/31 06:52:36;;;;;;;6.22;1.63;;;17.90;91.90;;;;;;5061478;28;20049;-83
2023/05/31 06:55:23;;;;;;;5.65;0.93;;;17.80;89.70;;;;;;5063286;28;20078;-85
2023/05/31 06:57:56;;;;;;;4.05;2.17;;;17.90;87.80;;;;;;5058842;28;20068;-86
2023/05/31 07:00:24;;;;;;;;;;;18.10;85.50;;;;;;5058880;28;20052;-82
2023/05/31 07:02:52;;;;;;;2.28;0.63;;;18.10;81.10;;;;;;5057180;28;19930;-83
2023/05/31 07:05:23;;;;;;;3.70;1.50;;;18.10;82.50;;;;;;5033198;28;20044;-83
2023/05/31 07:07:52;;;;;;;4.32;0.90;;;18.30;81.50;;;;;;5038819;28;20537;-83
2023/05/31 07:10:20;;;;;;;2.40;0.90;;;18.50;79.20;;;;;;5039082;28;20361;-83
2023/05/31 07:12:51;;;;;;;3.72;0.80;;;18.70;77.90;;;;;;5054991;28;20524;-83
2023/05/31 07:15:20;;;;;;;1.63;0.70;;;18.70;76.30;;;;;;5057402;28;20055;-83
2023/05/31 07:17:48;;;;;;;2.85;0.88;;;18.50;77.30;;;;;;5059800;28;20124;-83
2023/05/31 07:20:17;;;;;;;17.92;1.70;;;18.20;74.90;;;;;;5047546;28;20056;-83
2023/05/31 07:22:45;;;;;;;4.40;1.20;;;17.90;76.00;;;;;;5061674;28;20055;-87
2023/05/31 07:25:12;;;;;;;7.82;0.90;;;17.70;78.60;;;;;;5072814;28;20033;-88
2023/05/31 07:27:40;;;;;;;6.28;1.48;;;17.70;79.50;;;;;;5065242;28;20044;-88
2023/05/31 07:30:10;;;;;;;6.75;1.88;;;17.70;79.50;;;;;;5059807;28;20274;-86
2023/05/31 07:32:40;;;;;;;5.43;1.10;;;17.60;81.00;;;;;;5056848;28;20047;-87
2023/05/31 07:35:11;;;;;;;3.97;1.48;;;17.40;81.10;;;;;;5063297;28;20067;-87
2023/05/31 07:37:38;;;;;;;5.00;1.30;;;17.20;81.70;;;;;;5038542;28;20048;-80
2023/05/31 07:40:09;;;;;;;13.75;2.30;;;17.00;81.20;;;;;;5055659;28;20277;-79
2023/05/31 07:42:37;;;;;;;37.20;3.40;;;16.80;82.60;;;;;;5040079;28;20087;-81
2023/05/31 07:45:06;;;;;;;4.28;1.10;;;16.60;82.70;;;;;;5070199;28;20127;-85
2023/05/31 07:47:33;;;;;;;11.52;1.23;;;16.50;84.00;;;;;;5047889;28;20417;-86
2023/05/31 07:50:09;;;;;;;237.90;21.40;;;16.50;83.60;;;;;;5062000;28;20040;-84
2023/05/31 07:52:37;;;;;;;13.57;1.33;;;16.70;86.30;;;;;;5056015;28;20123;-90
2023/05/31 07:55:05;;;;;;;6.65;1.25;;;17.10;82.80;;;;;;5052991;28;20060;-84
2023/05/31 07:57:33;;;;;;;2.60;1.30;;;17.60;81.50;;;;;;5054791;28;20202;-85
2023/05/31 08:00:03;;;;;;;3.90;3.08;;;18.20;80.00;;;;;;5052089;28;20111;-85
2023/05/31 08:02:41;;;;;;;5.65;1.40;;;18.90;77.60;;;;;;5049297;28;20469;-86
2023/05/31 08:05:10;;;;;;;5.57;1.10;;;19.20;74.90;;;;;;5048524;28;20243;-88
2023/05/31 08:07:38;;;;;;;5.45;1.30;;;19.60;74.40;;;;;;5035944;28;20041;-85
2023/05/31 08:10:07;;;;;;;4.07;1.33;;;20.70;71.70;;;;;;5063491;28;20489;-86
2023/05/31 08:12:35;;;;;;;6.15;1.80;;;21.70;67.40;;;;;;5057340;28;20559;-85
2023/05/31 08:15:03;;;;;;;6.97;1.50;;;22.40;63.00;;;;;;5066988;28;20056;-86
2023/05/31 08:17:31;;;;;;;5.20;1.42;;;23.00;60.70;;;;;;5052216;28;20106;-84
2023/05/31 08:19:59;;;;;;;3.75;1.88;;;23.60;57.20;;;;;;5049408;28;20052;-85
2023/05/31 08:22:31;;;;;;;8.48;1.35;;;23.90;55.00;;;;;;5051451;28;20076;-87
2023/05/31 08:24:59;;;;;;;7.90;1.73;;;23.90;54.30;;;;;;5058721;28;20130;-86
2023/05/31 08:27:26;;;;;;;5.88;1.52;;;24.60;52.90;;;;;;5051357;28;20495;-86
2023/05/31 08:29:54;;;;;;;5.65;1.45;;;25.10;51.10;;;;;;5053299;28;20041;-85
2023/05/31 08:32:22;;;;;;;5.35;1.60;;;25.80;51.60;;;;;;5061304;28;20071;-84
2023/05/31 08:34:49;;;;;;;4.35;1.40;;;26.50;51.10;;;;;;5062587;28;20127;-82
2023/05/31 08:37:17;;;;;;;6.32;2.13;;;27.00;47.10;;;;;;5055785;28;20055;-80
2023/05/31 08:39:46;;;;;;;5.25;1.80;;;26.50;47.20;;;;;;5071358;28;20420;-81
2023/05/31 08:42:20;;;;;;;2.97;1.58;;;26.50;50.00;;;;;;5057326;28;20477;-80
2023/05/31 08:44:48;;;;;;;2.60;1.50;;;26.90;48.30;;;;;;5035969;28;20152;-80
2023/05/31 08:47:24;;;;;;;4.18;1.75;;;26.90;47.70;;;;;;5059273;28;20044;-81
2023/05/31 08:49:55;;;;;;;6.95;2.17;;;27.00;47.00;;;;;;5068164;28;20152;-80
2023/05/31 08:52:23;;;;;;;2.28;1.40;;;27.20;45.80;;;;;;5072289;28;20052;-81
2023/05/31 08:54:53;;;;;;;9.88;1.40;;;27.20;46.10;;;;;;5052077;28;20079;-81
2023/05/31 08:57:21;;;;;;;5.30;1.60;;;27.60;46.50;;;;;;5044128;28;20072;-81
2023/05/31 08:59:49;;;;;;;7.70;1.70;;;28.00;47.50;;;;;;5062443;28;20040;-81
2023/05/31 09:02:18;;;;;;;5.13;1.60;;;28.30;47.50;;;;;;5046791;28;20040;-80
2023/05/31 09:04:45;;;;;;;5.18;1.65;;;28.60;45.40;;;;;;5070889;28;20043;-81
2023/05/31 09:07:13;;;;;;;12.05;1.42;;;28.80;45.50;;;;;;5062294;28;20096;-80
2023/05/31 09:09:41;;;;;;;4.55;1.70;;;29.20;43.60;;;;;;5049932;28;20114;-80
2023/05/31 09:12:11;;;;;;;6.47;2.08;;;29.10;43.60;;;;;;5066990;28;20064;-81
2023/05/31 09:14:38;;;;;;;5.55;2.10;;;29.20;45.30;;;;;;5068862;28;20137;-80
2023/05/31 09:17:06;;;;;;;4.38;1.63;;;29.20;44.30;;;;;;5066030;28;20045;-80
2023/05/31 09:19:34;;;;;;;7.07;2.20;;;28.50;45.30;;;;;;5052989;28;20052;-82
2023/05/31 09:22:01;;;;;;;3.47;1.80;;;27.90;44.50;;;;;;5052469;28;20051;-80
2023/05/31 09:24:29;;;;;;;5.47;2.25;;;27.70;45.60;;;;;;5060051;28;20185;-80
2023/05/31 09:26:57;;;;;;;5.22;2.08;;;28.10;44.70;;;;;;5070813;28;20138;-79
2023/05/31 09:29:26;;;;;;;13.00;1.92;;;27.30;44.70;;;;;;5069070;28;20045;-80
2023/05/31 09:32:09;;;;;;;4.10;1.67;;;25.70;46.90;;;;;;5051354;28;20053;-80
2023/05/31 09:34:37;;;;;;;6.43;1.67;;;24.70;47.70;;;;;;5063879;28;20147;-81
2023/05/31 09:37:05;;;;;;;3.20;1.80;;;23.70;49.40;;;;;;5069980;28;20049;-82
2023/05/31 09:39:33;;;;;;;9.80;1.70;;;23.20;50.50;;;;;;5054427;28;20072;-81
2023/05/31 09:42:01;;;;;;;4.75;1.77;;;22.60;51.70;;;;;;5062438;28;20045;-79
2023/05/31 09:44:33;;;;;;;6.40;1.83;;;22.00;52.60;;;;;;5057017;28;20401;-79
2023/05/31 09:47:09;;;;;;;11.27;2.40;;;21.30;53.80;;;;;;5060581;28;20062;-84
2023/05/31 09:49:36;;;;;;;8.00;1.83;;;20.90;54.80;;;;;;5069542;28;20072;-84
2023/05/31 09:52:05;;;;;;;12.45;1.90;;;20.70;55.70;;;;;;5052974;28;20386;-84
2023/05/31 09:54:48;;;;;;;14.20;2.17;;;20.80;56.50;;;;;;5049002;28;20063;-85
2023/05/31 09:57:32;;;;;;;11.07;2.33;;;20.90;56.20;;;;;;5052958;28;20087;-85
2023/05/31 10:00:04;;;;;;;6.80;1.80;;;21.10;56.40;;;;;;5068422;28;20436;-84
2023/05/31 10:02:42;;;;;;;26.13;16.55;;;21.40;56.10;;;;;;5052991;28;20045;-85
2023/05/31 10:05:12;;;;;;;7.40;1.90;;;21.40;56.00;;;;;;5051727;28;20048;-83
2023/05/31 10:07:41;;;;;;;3.25;2.00;;;21.60;56.20;;;;;;5049715;28;20146;-84
2023/05/31 10:10:13;;;;;;;5.97;1.90;;;21.60;56.20;;;;;;5051776;28;20094;-84
2023/05/31 10:12:50;;;;;;;8.65;2.20;;;21.00;56.50;;;;;;5060922;28;20059;-84
2023/05/31 10:15:24;;;;;;;8.65;1.60;;;20.40;57.80;;;;;;5050834;28;20563;-85
2023/05/31 10:18:03;;;;;;;2.92;1.60;;;20.00;58.50;;;;;;5049437;28;20061;-86
2023/05/31 10:20:39;;;;;;;5.00;1.80;;;19.70;58.90;;;;;;5050095;28;20462;-86
2023/05/31 10:23:25;;;;;;;4.40;1.25;;;19.50;59.00;;;;;;5050078;28;20093;-86
2023/05/31 10:26:07;;;;;;;5.55;1.83;;;19.60;58.80;;;;;;5062704;28;20068;-82
2023/05/31 10:28:38;;;;;;;;;;;20.20;58.50;;;;;;5048991;28;20049;-86
2023/05/31 10:31:10;;;;;;;3.42;1.60;;;20.80;57.80;;;;;;5042928;28;20392;-82
2023/05/31 10:33:45;;;;;;;14.95;2.17;;;21.40;57.20;;;;;;5056608;28;20094;-81
2023/05/31 10:36:13;;;;;;;8.10;2.30;;;21.50;55.70;;;;;;5060448;28;20045;-77
2023/05/31 10:38:51;;;;;;;8.25;2.20;;;21.60;56.10;;;;;;5057996;28;20044;-80
2023/05/31 10:41:25;;;;;;;4.93;1.88;;;22.10;56.40;;;;;;5056881;28;20048;-81
2023/05/31 10:43:59;;;;;;;6.43;2.10;;;22.60;54.60;;;;;;5050216;28;20048;-79
2023/05/31 10:46:29;;;;;;;8.13;2.42;;;23.10;54.60;;;;;;5064284;28;20055;-80
2023/05/31 10:48:59;;;;;;;8.73;2.10;;;23.30;53.80;;;;;;5049774;28;20057;-80
2023/05/31 10:51:40;;;;;;;11.40;2.47;;;23.20;54.00;;;;;;5049881;28;20053;-82
2023/05/31 10:54:08;;;;;;;12.10;2.10;;;23.00;53.70;;;;;;5050142;28;20064;-80
2023/05/31 10:56:38;;;;;;;6.85;1.50;;;22.70;54.60;;;;;;5058578;28;20179;-79
2023/05/31 10:59:19;;;;;;;12.80;2.42;;;22.70;54.80;;;;;;5051228;28;20056;-79
2023/05/31 11:01:48;;;;;;;9.75;1.92;;;22.60;55.60;;;;;;5047969;28;20053;-81
2023/05/31 11:04:26;;;;;;;8.57;1.98;;;23.20;53.70;;;;;;5051832;28;20076;-81
2023/05/31 11:06:55;;;;;;;8.55;1.70;;;23.50;52.80;;;;;;5055275;28;20044;-82
2023/05/31 11:09:23;;;;;;;6.68;2.03;;;23.40;53.00;;;;;;5051749;28;20106;-79
2023/05/31 11:11:51;;;;;;;6.47;1.85;;;23.50;51.80;;;;;;5051040;28;20504;-78
2023/05/31 11:14:37;;;;;;;6.68;1.73;;;23.30;52.40;;;;;;5055131;28;20045;-77
2023/05/31 11:17:26;;;;;;;3.97;1.65;;;22.70;52.50;;;;;;5051357;28;20110;-80
2023/05/31 11:19:55;;;;;;;7.35;1.60;;;22.10;54.50;;;;;;5052174;28;20597;-83
2023/05/31 11:22:27;;;;;;;7.30;2.47;;;21.80;54.20;;;;;;5054380;28;20036;-79
2023/05/31 11:24:57;;;;;;;4.35;1.73;;;21.40;54.70;;;;;;5055676;28;20075;-77
2023/05/31 11:27:38;;;;;;;12.18;1.63;;;21.10;55.70;;;;;;5056381;28;20455;-76
2023/05/31 11:30:10;;;;;;;6.97;2.20;;;21.10;56.50;;;;;;5053360;28;20045;-76
2023/05/31 11:33:16;;;;;;;15.70;2.13;;;21.30;55.40;;;;;;5066551;28;20413;-76
2023/05/31 11:35:44;;;;;;;6.57;1.67;;;21.40;54.60;;;;;;5053675;28;20066;-77
2023/05/31 11:38:12;;;;;;;4.75;1.92;;;21.30;55.00;;;;;;5064827;28;20045;-82
2023/05/31 11:40:39;;;;;;;7.82;1.80;;;21.30;55.50;;;;;;5054703;28;20045;-79
2023/05/31 11:43:11;;;;;;;4.78;2.05;;;21.20;55.90;;;;;;5063211;28;20099;-82
2023/05/31 11:45:50;;;;;;;3.50;1.70;;;21.30;56.80;;;;;;5062602;28;20045;-80
2023/05/31 11:48:39;;;;;;;6.50;1.50;;;21.30;56.00;;;;;;5056221;28;20052;-81
2023/05/31 11:51:06;;;;;;;3.92;1.42;;;21.20;56.70;;;;;;5056005;28;20412;-79
2023/05/31 11:53:34;;;;;;;13.77;2.13;;;21.00;56.00;;;;;;5057897;28;20126;-81
2023/05/31 11:56:02;;;;;;;7.57;1.60;;;20.80;56.30;;;;;;5053306;28;20048;-81
2023/05/31 11:58:30;;;;;;;6.97;1.50;;;20.70;56.40;;;;;;5064773;28;20044;-79
2023/05/31 12:01:02;;;;;;;4.07;1.60;;;20.50;56.50;;;;;;5055719;28;20048;-78
2023/05/31 12:03:31;;;;;;;7.32;1.80;;;20.20;57.10;;;;;;5061887;28;20045;-82
2023/05/31 12:06:00;;;;;;;8.27;1.92;;;20.00;57.60;;;;;;5067534;28;20047;-83
2023/05/31 12:08:32;;;;;;;13.75;2.05;;;20.00;58.20;;;;;;5053091;28;20044;-81
2023/05/31 12:11:05;;;;;;;4.33;2.43;;;20.00;58.10;;;;;;5057374;28;20041;-86
2023/05/31 12:13:32;;;;;;;;;;;19.90;58.40;;;;;;5067423;28;20056;-81
2023/05/31 12:16:01;;;;;;;4.18;1.70;;;19.80;58.60;;;;;;5052233;28;19947;-82
2023/05/31 12:18:33;;;;;;;6.80;1.88;;;19.70;59.20;;;;;;5054102;28;20052;-77
2023/05/31 12:21:07;;;;;;;6.30;2.20;;;19.80;59.00;;;;;;5061354;28;20055;-77
2023/05/31 12:23:52;;;;;;;9.65;1.90;;;19.80;59.30;;;;;;5054469;28;20041;-77
2023/05/31 12:26:21;;;;;;;5.53;2.00;;;19.80;59.30;;;;;;5061312;28;20057;-78
2023/05/31 12:28:49;;;;;;;8.77;1.67;;;19.70;59.20;;;;;;5048156;28;20098;-77
2023/05/31 12:31:22;;;;;;;5.93;1.73;;;19.60;59.30;;;;;;5056844;28;20081;-78
2023/05/31 12:34:00;;;;;;;7.13;1.98;;;19.50;59.50;;;;;;5060603;28;20516;-77
2023/05/31 12:36:28;;;;;;;7.13;2.03;;;19.40;59.90;;;;;;5052041;28;20069;-77
2023/05/31 12:38:57;;;;;;;6.88;1.80;;;19.40;60.00;;;;;;5053797;28;20044;-77
2023/05/31 12:41:25;;;;;;;7.78;2.00;;;19.40;60.00;;;;;;5054955;28;20041;-78
2023/05/31 12:43:55;;;;;;;4.30;1.67;;;19.40;60.60;;;;;;5050925;28;20429;-78
2023/05/31 12:46:22;;;;;;;9.10;2.13;;;19.40;61.50;;;;;;5056152;28;20155;-79
2023/05/31 12:48:50;;;;;;;6.10;2.40;;;19.40;62.20;;;;;;5072082;28;20487;-79
2023/05/31 12:51:26;;;;;;;12.10;2.35;;;19.60;62.30;;;;;;5050797;28;20048;-80
2023/05/31 12:53:54;;;;;;;2.88;1.50;;;19.80;62.50;;;;;;5062199;28;20044;-83
2023/05/31 12:56:24;;;;;;;6.28;2.00;;;19.90;61.70;;;;;;5054815;28;20079;-82
2023/05/31 12:58:53;;;;;;;9.38;1.85;;;19.90;61.30;;;;;;5052846;28;20041;-82
2023/05/31 13:01:23;;;;;;;8.52;1.85;;;19.90;61.30;;;;;;5055740;28;20041;-84
2023/05/31 13:03:51;;;;;;;5.28;2.17;;;20.00;62.10;;;;;;5038387;28;20505;-84